sensor_id;sensor_type;location;lat;lon;timestamp;pressure;altitude;pressure_sealevel;temperature;humidity
75933;BME280;64803;52.356;5.310;2023-02-13T00:00:28;104191.84;;;6.59;100.00
75933;BME280;64803;52.356;5.310;2023-02-13T00:02:54;104190.88;;;6.60;100.00
75933;BME280;64803;52.356;5.310;2023-02-13T00:05:20;104184.75;;;6.58;100.00
75933;BME280;64803;52.356;5.310;2023-02-13T00:07:46;104188.44;;;6.55;100.00
75933;BME280;64803;52.356;5.310;2023-02-13T00:10:12;104167.28;;;6.51;100.00
75933;BME280;64803;52.356;5.310;2023-02-13T00:12:39;104175.59;;;6.45;100.00
75933;BME280;64803;52.356;5.310;2023-02-13T00:15:06;104183.44;;;6.48;100.00
75933;BME280;64803;52.356;5.310;2023-02-13T00:17:33;104184.38;;;6.47;100.00
75933;BME280;64803;52.356;5.310;2023-02-13T00:19:59;104178.19;;;6.46;100.00
75933;BME280;64803;52.356;5.310;2023-02-13T00:22:25;104173.84;;;6.44;100.00
75933;BME280;64803;52.356;5.310;2023-02-13T00:24:51;104168.34;;;6.47;100.00
75933;BME280;64803;52.356;5.310;2023-02-13T00:27:17;104132.03;;;6.24;100.00
75933;BME280;64803;52.356;5.310;2023-02-13T00:29:43;104176.25;;;6.50;100.00
75933;BME280;64803;52.356;5.310;2023-02-13T00:32:09;104173.69;;;6.47;100.00
75933;BME280;64803;52.356;5.310;2023-02-13T00:34:35;104173.84;;;6.44;100.00
75933;BME280;64803;52.356;5.310;2023-02-13T00:37:02;104146.09;;;6.28;100.00
75933;BME280;64803;52.356;5.310;2023-02-13T00:39:29;104170.38;;;6.42;100.00
75933;BME280;64803;52.356;5.310;2023-02-13T00:41:55;104171.38;;;6.39;100.00
75933;BME280;64803;52.356;5.310;2023-02-13T00:44:21;104165.31;;;6.36;100.00
75933;BME280;64803;52.356;5.310;2023-02-13T00:46:47;104169.72;;;6.37;100.00
75933;BME280;64803;52.356;5.310;2023-02-13T00:49:13;104175.84;;;6.39;100.00
75933;BME280;64803;52.356;5.310;2023-02-13T00:51:39;104170.38;;;6.42;100.00
75933;BME280;64803;52.356;5.310;2023-02-13T00:54:05;104169.28;;;6.46;100.00
75933;BME280;64803;52.356;5.310;2023-02-13T00:56:31;104171.09;;;6.45;100.00
75933;BME280;64803;52.356;5.310;2023-02-13T00:58:57;104173.75;;;6.45;100.00
75933;BME280;64803;52.356;5.310;2023-02-13T01:01:24;104169.44;;;6.43;100.00
75933;BME280;64803;52.356;5.310;2023-02-13T01:03:50;104162.00;;;6.31;100.00
75933;BME280;64803;52.356;5.310;2023-02-13T01:06:16;104160.13;;;6.33;100.00
75933;BME280;64803;52.356;5.310;2023-02-13T01:08:42;104166.31;;;6.33;100.00
75933;BME280;64803;52.356;5.310;2023-02-13T01:11:08;104174.25;;;6.35;100.00
75933;BME280;64803;52.356;5.310;2023-02-13T01:13:35;104168.78;;;6.38;100.00
75933;BME280;64803;52.356;5.310;2023-02-13T01:16:01;104144.38;;;6.27;100.00
75933;BME280;64803;52.356;5.310;2023-02-13T01:18:28;104170.50;;;6.39;100.00
75933;BME280;64803;52.356;5.310;2023-02-13T01:21:03;104164.22;;;6.40;100.00
75933;BME280;64803;52.356;5.310;2023-02-13T01:23:35;104167.63;;;6.43;100.00
75933;BME280;64803;52.356;5.310;2023-02-13T01:26:04;104165.81;;;6.44;100.00
75933;BME280;64803;52.356;5.310;2023-02-13T01:28:30;104170.38;;;6.42;100.00
75933;BME280;64803;52.356;5.310;2023-02-13T01:30:56;104159.91;;;6.37;100.00
75933;BME280;64803;52.356;5.310;2023-02-13T01:33:24;104161.56;;;6.40;100.00
75933;BME280;64803;52.356;5.310;2023-02-13T01:35:50;104155.16;;;6.44;100.00
75933;BME280;64803;52.356;5.310;2023-02-13T01:38:17;104159.84;;;6.39;100.00
75933;BME280;64803;52.356;5.310;2023-02-13T01:40:48;104172.38;;;6.37;100.00
75933;BME280;64803;52.356;5.310;2023-02-13T01:43:16;104168.84;;;6.36;100.00
75933;BME280;64803;52.356;5.310;2023-02-13T01:45:44;104162.59;;;6.37;100.00
75933;BME280;64803;52.356;5.310;2023-02-13T01:48:17;104162.44;;;6.40;100.00
75933;BME280;64803;52.356;5.310;2023-02-13T01:50:48;104162.44;;;6.40;100.00
75933;BME280;64803;52.356;5.310;2023-02-13T01:53:25;104158.13;;;6.38;100.00
75933;BME280;64803;52.356;5.310;2023-02-13T01:55:57;104157.16;;;6.39;100.00
75933;BME280;64803;52.356;5.310;2023-02-13T01:58:28;104151.97;;;6.36;100.00
75933;BME280;64803;52.356;5.310;2023-02-13T02:00:56;104164.44;;;6.35;100.00
75933;BME280;64803;52.356;5.310;2023-02-13T02:03:27;104154.09;;;6.28;100.00
75933;BME280;64803;52.356;5.310;2023-02-13T02:06:03;104153.03;;;6.32;100.00
75933;BME280;64803;52.356;5.310;2023-02-13T02:08:32;104144.13;;;6.33;100.00
75933;BME280;64803;52.356;5.310;2023-02-13T02:11:04;104146.72;;;6.34;100.00
75933;BME280;64803;52.356;5.310;2023-02-13T02:13:31;104142.38;;;6.32;100.00
75933;BME280;64803;52.356;5.310;2023-02-13T02:16:03;104146.78;;;6.33;100.00
75933;BME280;64803;52.356;5.310;2023-02-13T02:18:29;104145.13;;;6.30;100.00
75933;BME280;64803;52.356;5.310;2023-02-13T02:31:38;104135.97;;;6.36;100.00
75933;BME280;64803;52.356;5.310;2023-02-13T02:40:02;104147.72;;;6.32;100.00
75933;BME280;64803;52.356;5.310;2023-02-13T02:45:26;104137.19;;;6.29;100.00
75933;BME280;64803;52.356;5.310;2023-02-13T02:51:21;104129.75;;;6.35;100.00
75933;BME280;64803;52.356;5.310;2023-02-13T02:54:16;104127.16;;;6.34;100.00
75933;BME280;64803;52.356;5.310;2023-02-13T02:57:13;104127.97;;;6.36;100.00
75933;BME280;64803;52.356;5.310;2023-02-13T02:59:42;104128.16;;;6.31;100.00
75933;BME280;64803;52.356;5.310;2023-02-13T03:02:29;104122.78;;;6.33;100.00
75933;BME280;64803;52.356;5.310;2023-02-13T03:05:22;104121.16;;;6.29;100.00
75933;BME280;64803;52.356;5.310;2023-02-13T03:08:09;104133.56;;;6.30;100.00
75933;BME280;64803;52.356;5.310;2023-02-13T03:10:37;104120.22;;;6.30;100.00
75933;BME280;64803;52.356;5.310;2023-02-13T03:13:36;104096.91;;;6.15;100.00
75933;BME280;64803;52.356;5.310;2023-02-13T03:16:04;104135.44;;;6.28;100.00
75933;BME280;64803;52.356;5.310;2023-02-13T03:18:52;104132.00;;;6.26;100.00
75933;BME280;64803;52.356;5.310;2023-02-13T03:21:56;104136.38;;;6.27;100.00
75933;BME280;64803;52.356;5.310;2023-02-13T03:25:10;104131.03;;;6.27;100.00
75933;BME280;64803;52.356;5.310;2023-02-13T03:41:40;104126.66;;;6.26;100.00
75933;BME280;64803;52.356;5.310;2023-02-13T03:44:24;104123.31;;;6.21;100.00
75933;BME280;64803;52.356;5.310;2023-02-13T03:46:56;104116.25;;;6.20;100.00
75933;BME280;64803;52.356;5.310;2023-02-13T03:49:34;104125.19;;;6.19;100.00
75933;BME280;64803;52.356;5.310;2023-02-13T03:52:28;104118.13;;;6.18;100.00
75933;BME280;64803;52.356;5.310;2023-02-13T03:55:04;104120.78;;;6.18;100.00
75933;BME280;64803;52.356;5.310;2023-02-13T03:57:53;104119.13;;;6.15;100.00
75933;BME280;64803;52.356;5.310;2023-02-13T04:00:45;104127.72;;;6.22;100.00
75933;BME280;64803;52.356;5.310;2023-02-13T04:04:04;104121.31;;;6.26;100.00
75933;BME280;64803;52.356;5.310;2023-02-13T04:06:08;104125.69;;;6.27;100.00
75933;BME280;64803;52.356;5.310;2023-02-13T04:08:36;104132.00;;;6.26;100.00
75933;BME280;64803;52.356;5.310;2023-02-13T04:11:32;104126.50;;;6.29;100.00
75933;BME280;64803;52.356;5.310;2023-02-13T04:14:06;104131.69;;;6.32;100.00
75933;BME280;64803;52.356;5.310;2023-02-13T04:16:42;104130.78;;;6.33;100.00
75933;BME280;64803;52.356;5.310;2023-02-13T04:19:10;104115.69;;;6.32;100.00
75933;BME280;64803;52.356;5.310;2023-02-13T04:21:38;104116.56;;;6.32;100.00
75933;BME280;64803;52.356;5.310;2023-02-13T04:24:06;104112.88;;;6.35;100.00
75933;BME280;64803;52.356;5.310;2023-02-13T04:26:35;104088.69;;;6.19;100.00
75933;BME280;64803;52.356;5.310;2023-02-13T04:29:02;104114.69;;;6.34;100.00
75933;BME280;64803;52.356;5.310;2023-02-13T04:31:28;104072.31;;;6.08;100.00
75933;BME280;64803;52.356;5.310;2023-02-13T04:33:54;104107.03;;;6.27;100.00
75933;BME280;64803;52.356;5.310;2023-02-13T04:36:20;104112.22;;;6.30;100.00
75933;BME280;64803;52.356;5.310;2023-02-13T04:38:46;104102.47;;;6.29;100.00
75933;BME280;64803;52.356;5.310;2023-02-13T04:41:12;104110.66;;;6.26;100.00
75933;BME280;64803;52.356;5.310;2023-02-13T04:43:38;104109.75;;;6.25;100.00
75933;BME280;64803;52.356;5.310;2023-02-13T04:46:04;104083.84;;;6.09;100.00
75933;BME280;64803;52.356;5.310;2023-02-13T04:48:30;104114.16;;;6.26;100.00
75933;BME280;64803;52.356;5.310;2023-02-13T04:50:56;104101.59;;;6.28;100.00
75933;BME280;64803;52.356;5.310;2023-02-13T04:53:22;104099.81;;;6.29;100.00
75933;BME280;64803;52.356;5.310;2023-02-13T04:55:48;104099.81;;;6.29;100.00
75933;BME280;64803;52.356;5.310;2023-02-13T04:58:14;104091.81;;;6.29;100.00
75933;BME280;64803;52.356;5.310;2023-02-13T05:00:40;104098.78;;;6.31;100.00
75933;BME280;64803;52.356;5.310;2023-02-13T05:03:09;104097.06;;;6.30;100.00
75933;BME280;64803;52.356;5.310;2023-02-13T05:05:35;104095.41;;;6.28;100.00
75933;BME280;64803;52.356;5.310;2023-02-13T05:08:02;104084.72;;;6.28;100.00
75933;BME280;64803;52.356;5.310;2023-02-13T05:10:28;104089.00;;;6.32;100.00
75933;BME280;64803;52.356;5.310;2023-02-13T05:12:54;104084.44;;;6.34;100.00
75933;BME280;64803;52.356;5.310;2023-02-13T05:15:20;104091.50;;;6.35;100.00
75933;BME280;64803;52.356;5.310;2023-02-13T05:17:48;104089.63;;;6.37;100.00
75933;BME280;64803;52.356;5.310;2023-02-13T05:20:14;104084.53;;;6.32;100.00
75933;BME280;64803;52.356;5.310;2023-02-13T05:22:45;104035.41;;;5.99;100.00
75933;BME280;64803;52.356;5.310;2023-02-13T05:25:30;104092.63;;;6.31;100.00
75933;BME280;64803;52.356;5.310;2023-02-13T05:27:56;104092.63;;;6.31;100.00
75933;BME280;64803;52.356;5.310;2023-02-13T05:30:23;104088.06;;;6.33;100.00
75933;BME280;64803;52.356;5.310;2023-02-13T05:32:49;104092.47;;;6.34;100.00
75933;BME280;64803;52.356;5.310;2023-02-13T05:35:21;104088.84;;;6.35;100.00
75933;BME280;64803;52.356;5.310;2023-02-13T05:37:47;104088.00;;;6.34;100.00
75933;BME280;64803;52.356;5.310;2023-02-13T05:40:13;104090.59;;;6.36;100.00
75933;BME280;64803;52.356;5.310;2023-02-13T05:42:40;104097.66;;;6.37;100.00
75933;BME280;64803;52.356;5.310;2023-02-13T05:45:07;104088.75;;;6.36;100.00
75933;BME280;64803;52.356;5.310;2023-02-13T05:47:34;104092.31;;;6.37;100.00
75933;BME280;64803;52.356;5.310;2023-02-13T05:50:00;104086.16;;;6.35;100.00
75933;BME280;64803;52.356;5.310;2023-02-13T05:52:27;104095.19;;;6.32;100.00
75933;BME280;64803;52.356;5.310;2023-02-13T05:54:53;104086.25;;;6.33;100.00
75933;BME280;64803;52.356;5.310;2023-02-13T05:57:19;104090.75;;;6.33;100.00
75933;BME280;64803;52.356;5.310;2023-02-13T05:59:45;104090.03;;;6.29;100.00
75933;BME280;64803;52.356;5.310;2023-02-13T06:02:11;104080.41;;;6.25;100.00
75933;BME280;64803;52.356;5.310;2023-02-13T06:04:37;104080.56;;;6.22;100.00
75933;BME280;64803;52.356;5.310;2023-02-13T06:07:03;104083.97;;;6.26;100.00
75933;BME280;64803;52.356;5.310;2023-02-13T06:09:29;104084.72;;;6.28;100.00
75933;BME280;64803;52.356;5.310;2023-02-13T06:11:55;104080.19;;;6.30;100.00
75933;BME280;64803;52.356;5.310;2023-02-13T06:14:21;104090.78;;;6.31;100.00
75933;BME280;64803;52.356;5.310;2023-02-13T06:16:47;104090.75;;;6.33;100.00
75933;BME280;64803;52.356;5.310;2023-02-13T06:19:13;104092.53;;;6.32;100.00
75933;BME280;64803;52.356;5.310;2023-02-13T06:21:39;104087.28;;;6.31;100.00
75933;BME280;64803;52.356;5.310;2023-02-13T06:24:06;104099.50;;;6.35;100.00
75933;BME280;64803;52.356;5.310;2023-02-13T06:26:33;104046.56;;;6.07;100.00
75933;BME280;64803;52.356;5.310;2023-02-13T06:28:59;104092.63;;;6.31;100.00
75933;BME280;64803;52.356;5.310;2023-02-13T06:31:25;104030.56;;;5.89;100.00
75933;BME280;64803;52.356;5.310;2023-02-13T06:33:51;104103.41;;;6.28;100.00
75933;BME280;64803;52.356;5.310;2023-02-13T06:36:17;104106.03;;;6.29;100.00
75933;BME280;64803;52.356;5.310;2023-02-13T06:38:43;104104.28;;;6.28;100.00
75933;BME280;64803;52.356;5.310;2023-02-13T06:41:09;104087.03;;;6.17;100.00
75933;BME280;64803;52.356;5.310;2023-02-13T06:43:36;104099.81;;;6.29;100.00
75933;BME280;64803;52.356;5.310;2023-02-13T06:46:05;104077.16;;;6.19;100.00
75933;BME280;64803;52.356;5.310;2023-02-13T06:48:32;104105.81;;;6.34;100.00
75933;BME280;64803;52.356;5.310;2023-02-13T06:50:59;104069.44;;;6.13;100.00
75933;BME280;64803;52.356;5.310;2023-02-13T06:53:26;104109.47;;;6.31;100.00
75933;BME280;64803;52.356;5.310;2023-02-13T06:55:53;104109.63;;;6.28;100.00
75933;BME280;64803;52.356;5.310;2023-02-13T06:58:21;104112.38;;;6.27;100.00
75933;BME280;64803;52.356;5.310;2023-02-13T07:00:48;104113.25;;;6.27;100.00
75933;BME280;64803;52.356;5.310;2023-02-13T07:03:14;104111.38;;;6.29;100.00
75933;BME280;64803;52.356;5.310;2023-02-13T07:05:41;104117.53;;;6.30;100.00
75933;BME280;64803;52.356;5.310;2023-02-13T07:08:09;104119.31;;;6.31;100.00
75933;BME280;64803;52.356;5.310;2023-02-13T07:10:37;104106.88;;;6.30;100.00
75933;BME280;64803;52.356;5.310;2023-02-13T07:13:04;104108.09;;;6.23;100.00
75933;BME280;64803;52.356;5.310;2023-02-13T07:15:31;104116.56;;;6.32;100.00
75933;BME280;64803;52.356;5.310;2023-02-13T07:17:57;104128.94;;;6.33;100.00
75933;BME280;64803;52.356;5.310;2023-02-13T07:20:24;104106.44;;;6.20;100.00
75933;BME280;64803;52.356;5.310;2023-02-13T07:22:50;104125.44;;;6.33;100.00
75933;BME280;64803;52.356;5.310;2023-02-13T07:25:17;104077.59;;;6.10;100.00
75933;BME280;64803;52.356;5.310;2023-02-13T07:27:43;104129.53;;;6.40;100.00
75933;BME280;64803;52.356;5.310;2023-02-13T07:30:10;104112.78;;;6.36;100.00
75933;BME280;64803;52.356;5.310;2023-02-13T07:32:37;104118.72;;;6.43;100.00
75933;BME280;64803;52.356;5.310;2023-02-13T07:35:03;104113.38;;;6.43;100.00
75933;BME280;64803;52.356;5.310;2023-02-13T07:37:29;104107.44;;;6.36;100.00
75933;BME280;64803;52.356;5.310;2023-02-13T07:39:56;104125.94;;;6.41;100.00
75933;BME280;64803;52.356;5.310;2023-02-13T07:42:22;104112.66;;;6.39;100.00
75933;BME280;64803;52.356;5.310;2023-02-13T07:44:48;104126.81;;;6.41;100.00
75933;BME280;64803;52.356;5.310;2023-02-13T07:47:14;104134.75;;;6.43;100.00
75933;BME280;64803;52.356;5.310;2023-02-13T07:49:40;104130.06;;;6.48;100.00
75933;BME280;64803;52.356;5.310;2023-02-13T07:52:06;104098.75;;;6.33;100.00
75933;BME280;64803;52.356;5.310;2023-02-13T07:54:32;104106.53;;;6.37;100.00
75933;BME280;64803;52.356;5.310;2023-02-13T07:56:58;104129.75;;;6.54;100.00
75933;BME280;64803;52.356;5.310;2023-02-13T07:59:24;104115.97;;;6.44;100.00
75933;BME280;64803;52.356;5.310;2023-02-13T08:01:50;104137.50;;;6.60;100.00
75933;BME280;64803;52.356;5.310;2023-02-13T08:04:16;104137.34;;;6.63;100.00
75933;BME280;64803;52.356;5.310;2023-02-13T08:06:42;104136.41;;;6.64;100.00
75933;BME280;64803;52.356;5.310;2023-02-13T08:09:19;104142.53;;;6.66;100.00
75933;BME280;64803;52.356;5.310;2023-02-13T08:12:06;104142.25;;;6.72;100.00
75933;BME280;64803;52.356;5.310;2023-02-13T08:14:33;104155.25;;;6.79;100.00
75933;BME280;64803;52.356;5.310;2023-02-13T08:16:59;104138.34;;;6.79;100.00
75933;BME280;64803;52.356;5.310;2023-02-13T08:19:26;104146.28;;;6.80;100.00
75933;BME280;64803;52.356;5.310;2023-02-13T08:21:52;104149.69;;;6.84;100.00
75933;BME280;64803;52.356;5.310;2023-02-13T08:24:19;104152.06;;;6.90;100.00
75933;BME280;64803;52.356;5.310;2023-02-13T08:26:45;104143.25;;;6.88;100.00
75933;BME280;64803;52.356;5.310;2023-02-13T08:29:11;104154.22;;;7.01;100.00
75933;BME280;64803;52.356;5.310;2023-02-13T08:31:37;104151.31;;;7.05;100.00
75933;BME280;64803;52.356;5.310;2023-02-13T08:34:03;104150.53;;;7.03;100.00
75933;BME280;64803;52.356;5.310;2023-02-13T08:36:29;104149.28;;;7.10;100.00
75933;BME280;64803;52.356;5.310;2023-02-13T08:38:56;104156.22;;;7.14;100.00
75933;BME280;64803;52.356;5.310;2023-02-13T08:41:22;104147.97;;;7.19;100.00
75933;BME280;64803;52.356;5.310;2023-02-13T08:43:48;104152.31;;;7.21;100.00
75933;BME280;64803;52.356;5.310;2023-02-13T08:46:15;104150.34;;;7.25;100.00
75933;BME280;64803;52.356;5.310;2023-02-13T08:48:42;104151.84;;;7.30;100.00
75933;BME280;64803;52.356;5.310;2023-02-13T08:51:10;104148.22;;;7.31;100.00
75933;BME280;64803;52.356;5.310;2023-02-13T08:53:37;104149.09;;;7.32;100.00
75933;BME280;64803;52.356;5.310;2023-02-13T08:56:04;104109.72;;;7.18;100.00
75933;BME280;64803;52.356;5.310;2023-02-13T08:58:30;104145.56;;;7.48;100.00
75933;BME280;64803;52.356;5.310;2023-02-13T09:00:56;104155.81;;;7.57;100.00
75933;BME280;64803;52.356;5.310;2023-02-13T09:03:22;104151.09;;;7.62;100.00
75933;BME280;64803;52.356;5.310;2023-02-13T09:05:48;104146.53;;;7.64;100.00
75933;BME280;64803;52.356;5.310;2023-02-13T09:08:14;104122.28;;;7.50;100.00
75933;BME280;64803;52.356;5.310;2023-02-13T09:10:41;104141.00;;;7.67;100.00
75933;BME280;64803;52.356;5.310;2023-02-13T09:13:08;104147.94;;;7.71;100.00
75933;BME280;64803;52.356;5.310;2023-02-13T09:15:37;104145.72;;;7.79;100.00
75933;BME280;64803;52.356;5.310;2023-02-13T09:18:06;104141.03;;;7.84;100.00
75933;BME280;64803;52.356;5.310;2023-02-13T09:20:32;104136.69;;;7.82;100.00
75933;BME280;64803;52.356;5.310;2023-02-13T09:22:58;104141.41;;;7.94;100.00
75933;BME280;64803;52.356;5.310;2023-02-13T09:25:24;104143.06;;;7.96;100.00
75933;BME280;64803;52.356;5.310;2023-02-13T09:27:50;104139.44;;;7.97;100.00
75933;BME280;64803;52.356;5.310;2023-02-13T09:30:16;104141.78;;;8.04;100.00
75933;BME280;64803;52.356;5.310;2023-02-13T09:32:52;104145.41;;;8.02;100.00
75933;BME280;64803;52.356;5.310;2023-02-13T09:35:19;104141.00;;;8.02;100.00
75933;BME280;64803;52.356;5.310;2023-02-13T09:37:45;104143.03;;;8.14;100.00
75933;BME280;64803;52.356;5.310;2023-02-13T09:40:29;104146.22;;;8.20;100.00
75933;BME280;64803;52.356;5.310;2023-02-13T09:45:45;104140.16;;;8.34;100.00
75933;BME280;64803;52.356;5.310;2023-02-13T09:48:18;104141.25;;;8.47;100.00
75933;BME280;64803;52.356;5.310;2023-02-13T09:50:49;104139.88;;;8.55;100.00
75933;BME280;64803;52.356;5.310;2023-02-13T09:53:23;104145.50;;;8.66;100.00
75933;BME280;64803;52.356;5.310;2023-02-13T09:56:04;104137.19;;;8.71;100.00
75933;BME280;64803;52.356;5.310;2023-02-13T09:58:46;104144.56;;;8.83;100.00
75933;BME280;64803;52.356;5.310;2023-02-13T10:01:22;104147.06;;;8.86;100.00
75933;BME280;64803;52.356;5.310;2023-02-13T10:06:44;104141.69;;;9.01;100.00
75933;BME280;64803;52.356;5.310;2023-02-13T10:09:26;104145.50;;;9.13;100.00
75933;BME280;64803;52.356;5.310;2023-02-13T10:12:11;104143.41;;;9.18;100.00
75933;BME280;64803;52.356;5.310;2023-02-13T10:14:57;104135.28;;;9.20;100.00
75933;BME280;64803;52.356;5.310;2023-02-13T10:17:40;104138.38;;;9.28;100.00
75933;BME280;64803;52.356;5.310;2023-02-13T10:20:35;104131.78;;;9.33;100.00
75933;BME280;64803;52.356;5.310;2023-02-13T10:23:15;104105.34;;;9.27;100.00
75933;BME280;64803;52.356;5.310;2023-02-13T10:25:49;104137.63;;;9.55;100.00
75933;BME280;64803;52.356;5.310;2023-02-13T10:28:27;104137.00;;;9.50;100.00
75933;BME280;64803;52.356;5.310;2023-02-13T10:30:58;104140.06;;;9.44;100.00
75933;BME280;64803;52.356;5.310;2023-02-13T10:33:33;104132.44;;;9.52;100.00
75933;BME280;64803;52.356;5.310;2023-02-13T10:36:27;104135.28;;;9.49;100.00
75933;BME280;64803;52.356;5.310;2023-02-13T10:38:55;104136.06;;;9.51;100.00
75933;BME280;64803;52.356;5.310;2023-02-13T10:44:05;104134.31;;;9.66;100.00
75933;BME280;64803;52.356;5.310;2023-02-13T10:49:32;104129.59;;;9.69;100.00
75933;BME280;64803;52.356;5.310;2023-02-13T10:58:14;104118.81;;;9.85;100.00
75933;BME280;64803;52.356;5.310;2023-02-13T11:03:19;104114.56;;;10.10;100.00
75933;BME280;64803;52.356;5.310;2023-02-13T11:05:47;104115.50;;;10.09;100.00
75933;BME280;64803;52.356;5.310;2023-02-13T11:08:21;104096.53;;;10.12;100.00
75933;BME280;64803;52.356;5.310;2023-02-13T11:10:47;104098.25;;;10.13;100.00
75933;BME280;64803;52.356;5.310;2023-02-13T11:13:19;104105.16;;;10.17;100.00
75933;BME280;64803;52.356;5.310;2023-02-13T11:16:03;104098.16;;;10.29;100.00
75933;BME280;64803;52.356;5.310;2023-02-13T11:18:38;104095.75;;;10.53;100.00
75933;BME280;64803;52.356;5.310;2023-02-13T11:21:09;104090.91;;;10.72;100.00
75933;BME280;64803;52.356;5.310;2023-02-13T11:23:39;104087.00;;;10.63;98.05
75933;BME280;64803;52.356;5.310;2023-02-13T11:26:10;104085.75;;;10.55;100.00
75933;BME280;64803;52.356;5.310;2023-02-13T11:28:48;104094.19;;;10.49;100.00
75933;BME280;64803;52.356;5.310;2023-02-13T11:31:34;104081.84;;;10.73;100.00
75933;BME280;64803;52.356;5.310;2023-02-13T11:34:26;104092.53;;;11.01;99.87
75933;BME280;64803;52.356;5.310;2023-02-13T11:37:07;104087.84;;;11.17;98.31
75933;BME280;64803;52.356;5.310;2023-02-13T11:39:40;104040.06;;;11.08;99.94
75933;BME280;64803;52.356;5.310;2023-02-13T11:42:18;104067.38;;;11.14;95.97
75933;BME280;64803;52.356;5.310;2023-02-13T11:44:50;104071.50;;;10.81;97.55
75933;BME280;64803;52.356;5.310;2023-02-13T11:47:30;104063.06;;;10.59;98.12
75933;BME280;64803;52.356;5.310;2023-02-13T11:49:57;104053.31;;;10.58;100.00
75933;BME280;64803;52.356;5.310;2023-02-13T11:52:35;104055.09;;;10.71;100.00
75933;BME280;64803;52.356;5.310;2023-02-13T11:55:05;104038.59;;;10.90;99.34
75933;BME280;64803;52.356;5.310;2023-02-13T11:57:32;104047.97;;;10.97;98.56
75933;BME280;64803;52.356;5.310;2023-02-13T12:00:00;104043.47;;;10.97;98.12
75933;BME280;64803;52.356;5.310;2023-02-13T12:02:47;104047.22;;;10.95;98.86
75933;BME280;64803;52.356;5.310;2023-02-13T12:05:20;104030.94;;;10.84;97.75
75933;BME280;64803;52.356;5.310;2023-02-13T12:07:46;104035.28;;;10.72;100.00
75933;BME280;64803;52.356;5.310;2023-02-13T12:10:30;104035.50;;;10.69;100.00
75933;BME280;64803;52.356;5.310;2023-02-13T12:12:59;104034.59;;;10.83;99.38
75933;BME280;64803;52.356;5.310;2023-02-13T12:15:30;104023.88;;;10.95;100.00
75933;BME280;64803;52.356;5.310;2023-02-13T12:18:21;104032.09;;;11.06;97.90
75933;BME280;64803;52.356;5.310;2023-02-13T12:20:54;104035.44;;;11.10;96.65
75933;BME280;64803;52.356;5.310;2023-02-13T12:29:03;104023.69;;;11.11;95.95
75933;BME280;64803;52.356;5.310;2023-02-13T12:31:37;104032.00;;;11.08;95.35
75933;BME280;64803;52.356;5.310;2023-02-13T12:37:22;104016.25;;;11.02;96.60
75933;BME280;64803;52.356;5.310;2023-02-13T12:40:58;104023.78;;;10.97;96.87
75933;BME280;64803;52.356;5.310;2023-02-13T12:49:13;104017.41;;;11.37;96.82
75933;BME280;64803;52.356;5.310;2023-02-13T12:52:07;104019.44;;;11.33;96.58
75933;BME280;64803;52.356;5.310;2023-02-13T12:57:26;104006.53;;;11.38;96.43
75933;BME280;64803;52.356;5.310;2023-02-13T13:02:46;103957.44;;;11.10;96.50
75933;BME280;64803;52.356;5.310;2023-02-13T13:05:42;104001.38;;;11.35;96.18
75933;BME280;64803;52.356;5.310;2023-02-13T13:08:29;104007.94;;;11.44;96.30
75933;BME280;64803;52.356;5.310;2023-02-13T13:14:14;103991.91;;;11.55;95.97
75933;BME280;64803;52.356;5.310;2023-02-13T13:17:11;103943.25;;;11.33;96.12
75933;BME280;64803;52.356;5.310;2023-02-13T13:20:02;103975.88;;;11.54;96.13
75933;BME280;64803;52.356;5.310;2023-02-13T13:22:49;103975.31;;;11.61;96.05
75933;BME280;64803;52.356;5.310;2023-02-13T13:28:13;103958.09;;;11.64;92.81
75933;BME280;64803;52.356;5.310;2023-02-13T13:30:41;103964.38;;;11.64;92.76
75933;BME280;64803;52.356;5.310;2023-02-13T13:33:14;103962.19;;;11.57;92.86
75933;BME280;64803;52.356;5.310;2023-02-13T13:41:41;103955.00;;;11.57;93.29
75933;BME280;64803;52.356;5.310;2023-02-13T13:54:47;103941.94;;;11.51;92.53
75933;BME280;64803;52.356;5.310;2023-02-13T14:07:49;103929.91;;;11.69;91.21
75933;BME280;64803;52.356;5.310;2023-02-13T14:20:41;103921.91;;;11.80;89.38
75933;BME280;64803;52.356;5.310;2023-02-13T14:23:34;103924.91;;;11.88;90.21
75933;BME280;64803;52.356;5.310;2023-02-13T14:28:55;103908.78;;;11.76;90.13
75933;BME280;64803;52.356;5.310;2023-02-13T14:31:22;103917.59;;;11.90;91.30
75933;BME280;64803;52.356;5.310;2023-02-13T14:36:37;103890.28;;;11.71;89.68
75933;BME280;64803;52.356;5.310;2023-02-13T14:39:46;103918.78;;;11.86;88.88
75933;BME280;64803;52.356;5.310;2023-02-13T14:46:49;103924.69;;;11.91;89.12
75933;BME280;64803;52.356;5.310;2023-02-13T14:49:23;103919.53;;;11.88;90.00
75933;BME280;64803;52.356;5.310;2023-02-13T14:51:53;103916.59;;;11.91;89.02
75933;BME280;64803;52.356;5.310;2023-02-13T14:54:32;103915.22;;;11.86;88.71
75933;BME280;64803;52.356;5.310;2023-02-13T14:57:12;103913.81;;;11.93;89.63
75933;BME280;64803;52.356;5.310;2023-02-13T14:59:45;103912.97;;;11.92;89.23
75933;BME280;64803;52.356;5.310;2023-02-13T15:02:24;103909.28;;;11.93;88.89
75933;BME280;64803;52.356;5.310;2023-02-13T15:04:56;103911.75;;;11.96;90.02
75933;BME280;64803;52.356;5.310;2023-02-13T15:07:30;103908.41;;;11.93;89.22
75933;BME280;64803;52.356;5.310;2023-02-13T15:10:01;103896.47;;;11.84;89.41
75933;BME280;64803;52.356;5.310;2023-02-13T15:12:31;103907.47;;;11.94;89.91
75933;BME280;64803;52.356;5.310;2023-02-13T15:14:59;103909.81;;;11.98;90.24
75933;BME280;64803;52.356;5.310;2023-02-13T15:17:30;103901.84;;;11.97;90.32
75933;BME280;64803;52.356;5.310;2023-02-13T15:20:26;103907.03;;;11.87;90.16
75933;BME280;64803;52.356;5.310;2023-02-13T15:22:53;103908.13;;;11.85;90.23